createdAt,value
2023-03-16T00:00:15.170Z,99494.35
2023-03-16T00:02:45.678Z,99496.27
2023-03-16T00:05:16.064Z,99491.86
2023-03-16T00:07:57.245Z,99495.69
2023-03-16T00:10:27.944Z,99498.98
2023-03-16T00:12:57.555Z,99501.27
2023-03-16T00:15:26.698Z,99501.18
2023-03-16T00:17:58.178Z,99504.23
2023-03-16T00:20:29.357Z,99507.24
2023-03-16T00:22:59.108Z,99510.84
2023-03-16T00:25:33.685Z,99510.74
2023-03-16T00:28:05.691Z,99510.13
2023-03-16T00:30:38.552Z,99508.84
2023-03-16T00:33:16.243Z,99506.39
2023-03-16T00:35:50.976Z,99508.22
2023-03-16T00:38:26.879Z,99509.23
2023-03-16T00:41:04.168Z,99511.42
2023-03-16T00:43:41.383Z,99508.77
2023-03-16T00:46:14.451Z,99502.73
2023-03-16T00:48:49.032Z,99503.54
2023-03-16T00:51:23.101Z,99506.30
2023-03-16T00:53:57.644Z,99512.18
2023-03-16T00:56:27.819Z,99514.71
2023-03-16T00:58:58.869Z,99514.52
2023-03-16T01:01:27.646Z,99519.75
2023-03-16T01:03:58.152Z,99520.13
2023-03-16T01:06:28.544Z,99522.36
2023-03-16T01:08:59.655Z,99524.20
2023-03-16T01:11:29.571Z,99524.64
2023-03-16T01:13:59.781Z,99524.02
2023-03-16T01:16:29.141Z,99522.83
2023-03-16T01:18:58.101Z,99527.92
2023-03-16T01:21:29.037Z,99531.30
2023-03-16T01:24:01.648Z,99532.39
2023-03-16T01:26:30.508Z,99538.41
2023-03-16T01:29:07.034Z,99535.93
2023-03-16T01:31:35.589Z,99540.14
2023-03-16T01:34:04.298Z,99538.66
2023-03-16T01:36:42.028Z,99534.73
2023-03-16T01:39:12.461Z,99531.77
2023-03-16T01:41:51.503Z,99526.48
2023-03-16T01:44:23.015Z,99522.05
2023-03-16T01:46:54.376Z,99519.84
2023-03-16T01:49:33.083Z,99525.09
2023-03-16T01:52:08.800Z,99528.98
2023-03-16T01:54:53.668Z,99529.77
2023-03-16T01:57:25.943Z,99533.10
2023-03-16T02:00:11.318Z,99535.40
2023-03-16T02:02:56.188Z,99530.58
2023-03-16T02:05:44.467Z,99528.71
2023-03-16T02:08:17.840Z,99527.79
2023-03-16T02:10:54.686Z,99522.30
2023-03-16T02:13:25.488Z,99520.56
2023-03-16T02:15:56.707Z,99518.79
2023-03-16T02:18:26.851Z,99513.94
2023-03-16T02:21:06.256Z,99509.80
2023-03-16T02:23:37.229Z,99507.92
2023-03-16T02:26:40.611Z,99507.20
2023-03-16T02:30:04.584Z,99499.34
2023-03-16T02:32:47.692Z,99503.84
2023-03-16T02:35:19.332Z,99506.44
2023-03-16T02:37:52.790Z,99507.69
2023-03-16T02:40:34.657Z,99501.60
2023-03-16T02:43:12.561Z,99500.23
2023-03-16T02:45:55.652Z,99500.70
2023-03-16T02:48:43.000Z,99498.91
2023-03-16T02:51:19.449Z,99501.64
2023-03-16T02:53:49.402Z,99506.72
2023-03-16T03:02:58.617Z,99504.34
2023-03-16T03:05:30.303Z,99504.77
2023-03-16T03:08:02.889Z,99503.02
2023-03-16T03:10:32.645Z,99502.28
2023-03-16T03:13:03.350Z,99499.92
2023-03-16T03:15:39.258Z,99501.11
2023-03-16T03:18:12.249Z,99498.75
2023-03-16T03:20:43.609Z,99502.31
2023-03-16T03:23:15.424Z,99500.14
2023-03-16T03:25:44.716Z,99498.23
2023-03-16T03:28:16.618Z,99496.30
2023-03-16T03:37:26.600Z,99499.45
2023-03-16T03:39:53.903Z,99495.63
2023-03-16T03:42:25.552Z,99497.89
2023-03-16T03:44:55.408Z,99494.23
2023-03-16T03:47:23.900Z,99494.55
2023-03-16T03:49:55.477Z,99494.88
2023-03-16T03:52:23.679Z,99497.73
2023-03-16T03:54:52.605Z,99492.05
2023-03-16T03:57:23.252Z,99493.34
2023-03-16T03:59:51.728Z,99491.90
2023-03-16T04:02:40.291Z,99495.93
2023-03-16T04:05:17.468Z,99499.36
2023-03-16T04:07:48.031Z,99501.57
2023-03-16T04:10:16.059Z,99503.13
2023-03-16T04:12:49.750Z,99499.86
2023-03-16T04:15:22.606Z,99502.88
2023-03-16T04:18:07.576Z,99503.59
2023-03-16T04:20:40.511Z,99503.73
2023-03-16T04:23:10.502Z,99503.98
2023-03-16T04:25:39.012Z,99506.64
2023-03-16T04:28:07.854Z,99501.81
2023-03-16T04:30:43.978Z,99503.73
2023-03-16T04:33:22.460Z,99506.35
2023-03-16T04:35:51.689Z,99507.48
2023-03-16T04:38:24.637Z,99508.04
2023-03-16T04:40:58.711Z,99512.27
2023-03-16T04:43:36.369Z,99518.11
2023-03-16T04:46:17.967Z,99523.09
2023-03-16T04:48:46.324Z,99525.67
2023-03-16T04:51:14.874Z,99528.51
2023-03-16T04:53:48.772Z,99532.87
2023-03-16T04:56:26.586Z,99527.85
2023-03-16T04:59:00.463Z,99531.21
2023-03-16T05:01:34.052Z,99530.28
2023-03-16T05:04:06.200Z,99529.08
2023-03-16T05:06:36.433Z,99531.17
2023-03-16T05:09:08.121Z,99536.20
2023-03-16T05:11:40.025Z,99535.31
2023-03-16T05:14:10.819Z,99537.73
2023-03-16T05:16:55.422Z,99534.37
2023-03-16T05:19:25.866Z,99533.05
2023-03-16T05:22:00.615Z,99534.95
2023-03-16T05:24:36.633Z,99536.67
2023-03-16T05:27:09.611Z,99534.84
2023-03-16T05:29:38.726Z,99534.54
2023-03-16T05:32:09.633Z,99534.14
2023-03-16T05:34:43.726Z,99539.94
2023-03-16T05:37:30.736Z,99539.86
2023-03-16T05:40:13.824Z,99545.34
2023-03-16T05:42:53.823Z,99544.79
2023-03-16T05:45:25.150Z,99545.41
2023-03-16T05:48:06.939Z,99548.50
2023-03-16T05:50:53.044Z,99543.60
2023-03-16T05:53:29.880Z,99544.86
2023-03-16T05:56:27.912Z,99545.99
2023-03-16T05:59:00.398Z,99549.00
2023-03-16T06:01:30.856Z,99548.36
2023-03-16T06:04:08.746Z,99547.77
2023-03-16T06:06:46.897Z,99543.79
2023-03-16T06:09:30.180Z,99547.48
2023-03-16T06:12:03.720Z,99550.84
2023-03-16T06:14:40.077Z,99550.60
2023-03-16T06:17:20.078Z,99552.03
2023-03-16T06:19:53.578Z,99552.73
2023-03-16T06:22:25.641Z,99556.67
2023-03-16T06:25:15.793Z,99557.14
2023-03-16T06:27:58.771Z,99560.05
2023-03-16T06:30:38.006Z,99562.63
2023-03-16T06:33:13.806Z,99559.04
2023-03-16T06:35:50.978Z,99560.44
2023-03-16T06:38:43.640Z,99558.11
2023-03-16T06:41:38.796Z,99560.00
2023-03-16T06:44:14.303Z,99564.95
2023-03-16T06:46:56.438Z,99569.12
2023-03-16T06:49:30.903Z,99571.21
2023-03-16T06:52:10.329Z,99573.46
2023-03-16T06:56:56.027Z,99573.23
2023-03-16T06:59:29.192Z,99575.11
2023-03-16T07:02:05.097Z,99573.92
2023-03-16T07:04:37.284Z,99573.02
2023-03-16T07:07:06.348Z,99572.40
2023-03-16T07:09:41.546Z,99570.27
2023-03-16T07:12:13.442Z,99568.67
2023-03-16T07:14:57.574Z,99566.23
2023-03-16T07:17:29.378Z,99571.17
2023-03-16T07:20:04.968Z,99570.07
2023-03-16T07:22:44.189Z,99571.80
2023-03-16T07:25:39.505Z,99573.63
2023-03-16T07:28:41.225Z,99573.52
2023-03-16T07:31:12.425Z,99571.58
2023-03-16T07:33:50.156Z,99579.81
2023-03-16T07:36:54.084Z,99572.58
2023-03-16T07:39:28.698Z,99575.48
2023-03-16T07:42:06.381Z,99579.88
2023-03-16T07:44:57.669Z,99582.98
2023-03-16T07:47:38.378Z,99585.85
2023-03-16T07:50:41.586Z,99587.62
2023-03-16T07:53:19.155Z,99580.81
2023-03-16T07:55:57.297Z,99589.14
2023-03-16T07:58:28.504Z,99590.17
2023-03-16T08:01:01.298Z,99591.55
2023-03-16T08:03:34.396Z,99589.13
2023-03-16T08:06:10.236Z,99590.23
2023-03-16T08:08:46.577Z,99595.81
2023-03-16T08:11:29.218Z,99597.29
2023-03-16T08:14:00.389Z,99594.76
2023-03-16T08:16:47.245Z,99598.20
2023-03-16T08:19:22.853Z,99599.71
2023-03-16T08:22:01.204Z,99602.79
2023-03-16T08:26:49.942Z,99605.06
2023-03-16T08:29:19.868Z,99607.94
2023-03-16T08:31:50.729Z,99607.36
2023-03-16T08:34:31.932Z,99606.92
2023-03-16T08:37:04.393Z,99607.45
2023-03-16T08:39:35.810Z,99610.64
2023-03-16T08:42:09.194Z,99612.41
2023-03-16T08:44:44.340Z,99615.02
2023-03-16T08:47:16.804Z,99617.52
2023-03-16T08:49:46.076Z,99617.55
2023-03-16T08:52:18.908Z,99614.52
2023-03-16T08:55:02.007Z,99616.84
2023-03-16T08:57:34.491Z,99618.52
2023-03-16T09:00:12.859Z,99620.18
2023-03-16T09:02:46.831Z,99615.27
2023-03-16T09:05:19.968Z,99615.45
2023-03-16T09:07:49.146Z,99620.00
2023-03-16T09:10:24.345Z,99622.69
2023-03-16T09:12:57.693Z,99625.45
2023-03-16T09:15:30.131Z,99625.73
2023-03-16T09:18:04.326Z,99630.80
2023-03-16T09:20:35.010Z,99633.77
2023-03-16T09:23:08.904Z,99633.32
2023-03-16T09:25:38.528Z,99637.04
2023-03-16T09:28:13.035Z,99641.44
2023-03-16T09:30:44.944Z,99643.52
2023-03-16T09:33:14.835Z,99646.34
2023-03-16T09:35:52.492Z,99649.98
2023-03-16T09:38:23.202Z,99651.13
2023-03-16T09:40:59.096Z,99652.19
2023-03-16T09:43:37.082Z,99657.30
2023-03-16T09:46:18.246Z,99647.84
2023-03-16T09:48:51.081Z,99646.98
2023-03-16T09:51:52.612Z,99647.73
2023-03-16T09:54:29.219Z,99651.59
2023-03-16T09:57:00.013Z,99653.77
2023-03-16T09:59:34.167Z,99652.77
2023-03-16T10:02:34.910Z,99655.41
2023-03-16T10:05:16.101Z,99646.77
2023-03-16T10:07:59.196Z,99648.17
2023-03-16T10:10:50.118Z,99649.33
2023-03-16T10:13:48.228Z,99648.62
2023-03-16T10:16:52.833Z,99638.71
2023-03-16T10:19:32.652Z,99653.31
2023-03-16T10:22:08.616Z,99656.71
2023-03-16T10:25:30.158Z,99651.59
2023-03-16T10:28:06.682Z,99652.58
2023-03-16T10:30:37.483Z,99651.54
2023-03-16T10:33:24.693Z,99650.11
2023-03-16T10:36:15.804Z,99654.40
2023-03-16T10:38:55.461Z,99651.48
2023-03-16T10:41:39.005Z,99648.48
2023-03-16T10:44:30.137Z,99655.77
2023-03-16T10:47:05.993Z,99657.98
2023-03-16T10:49:44.833Z,99651.20
2023-03-16T10:52:40.186Z,99644.23
2023-03-16T10:55:32.867Z,99641.30
2023-03-16T10:58:07.022Z,99640.14
2023-03-16T11:00:37.636Z,99638.98
2023-03-16T11:03:27.653Z,99643.10
2023-03-16T11:06:02.490Z,99647.54
2023-03-16T11:08:36.135Z,99644.52
2023-03-16T11:11:10.103Z,99648.20
2023-03-16T11:13:46.033Z,99647.49
2023-03-16T11:16:37.289Z,99646.06
2023-03-16T11:19:26.078Z,99645.58
2023-03-16T11:22:20.484Z,99645.45
2023-03-16T11:25:15.985Z,99647.05
2023-03-16T11:28:13.119Z,99646.00
2023-03-16T11:31:18.409Z,99641.11
2023-03-16T11:33:49.378Z,99641.49
2023-03-16T11:36:56.946Z,99635.95
2023-03-16T11:39:40.908Z,99643.63
2023-03-16T11:42:39.554Z,99647.30
2023-03-16T11:45:37.944Z,99650.74
2023-03-16T11:48:38.257Z,99646.94
2023-03-16T11:51:28.805Z,99640.56
2023-03-16T11:54:07.894Z,99638.19
2023-03-16T11:56:38.813Z,99638.29
2023-03-16T11:59:26.638Z,99636.83
2023-03-16T12:02:07.522Z,99640.59
2023-03-16T12:04:45.346Z,99641.05
2023-03-16T12:07:29.302Z,99637.45
2023-03-16T12:10:20.404Z,99644.92
2023-03-16T12:13:18.293Z,99641.40
2023-03-16T12:15:51.717Z,99645.38
2023-03-16T12:18:38.744Z,99648.84
2023-03-16T12:21:36.225Z,99657.40
2023-03-16T12:24:11.224Z,99659.59
2023-03-16T12:26:42.829Z,99659.88
2023-03-16T12:29:37.008Z,99663.27
2023-03-16T12:32:34.923Z,99663.59
2023-03-16T12:35:22.573Z,99668.10
2023-03-16T12:38:23.625Z,99669.99
2023-03-16T12:41:29.781Z,99665.83
2023-03-16T12:44:06.369Z,99669.36
2023-03-16T12:47:14.909Z,99668.85
2023-03-16T12:49:47.730Z,99673.23
2023-03-16T12:52:17.305Z,99676.02
2023-03-16T12:54:52.237Z,99675.73
2023-03-16T12:57:38.614Z,99665.29
2023-03-16T13:00:10.963Z,99674.29
2023-03-16T13:02:48.892Z,99674.23
2023-03-16T13:05:32.259Z,99682.39
2023-03-16T13:08:10.834Z,99688.74
2023-03-16T13:10:40.894Z,99682.88
2023-03-16T13:13:15.285Z,99682.56
2023-03-16T13:15:47.565Z,99687.73
2023-03-16T13:18:22.481Z,99692.45
2023-03-16T13:20:55.317Z,99685.02
2023-03-16T13:23:30.377Z,99687.83
2023-03-16T13:26:06.005Z,99701.61
2023-03-16T13:28:37.829Z,99689.61
2023-03-16T13:31:20.514Z,99699.11
2023-03-16T13:33:49.604Z,99705.58
2023-03-16T13:36:28.281Z,99700.58
2023-03-16T13:39:19.175Z,99706.33
2023-03-16T13:42:18.030Z,99710.19
2023-03-16T13:44:56.814Z,99709.48
2023-03-16T13:47:28.411Z,99721.58
2023-03-16T13:50:00.222Z,99715.56
2023-03-16T13:52:34.929Z,99716.27
2023-03-16T13:55:20.091Z,99719.59
2023-03-16T13:57:49.929Z,99725.01
2023-03-16T14:00:25.800Z,99727.81
2023-03-16T14:02:59.004Z,99729.27
2023-03-16T14:05:36.461Z,99728.12
2023-03-16T14:08:18.797Z,99732.08
2023-03-16T14:10:48.576Z,99731.41
2023-03-16T14:13:34.299Z,99730.23
2023-03-16T14:16:18.016Z,99729.30
2023-03-16T14:19:02.323Z,99730.71
2023-03-16T14:21:34.426Z,99731.15
2023-03-16T14:24:06.761Z,99736.29
2023-03-16T14:26:47.352Z,99743.86
2023-03-16T14:29:33.735Z,99743.29
2023-03-16T14:32:02.283Z,99755.48
2023-03-16T14:34:44.836Z,99755.21
2023-03-16T14:37:16.530Z,99768.33
2023-03-16T14:40:07.588Z,99758.42
2023-03-16T14:42:38.589Z,99766.71
2023-03-16T14:45:14.211Z,99770.70
2023-03-16T14:47:50.275Z,99775.91
2023-03-16T14:50:25.397Z,99779.00
2023-03-16T14:52:56.007Z,99790.42
2023-03-16T14:55:26.014Z,99798.79
2023-03-16T14:57:59.822Z,99811.27
2023-03-16T15:00:37.096Z,99815.02
2023-03-16T15:03:13.839Z,99817.14
2023-03-16T15:05:50.426Z,99823.14
2023-03-16T15:08:32.396Z,99824.36
2023-03-16T15:11:06.825Z,99836.45
2023-03-16T15:13:42.320Z,99840.37
2023-03-16T15:16:14.636Z,99844.39
2023-03-16T15:18:45.033Z,99839.34
2023-03-16T15:21:17.838Z,99843.16
2023-03-16T15:23:47.438Z,99846.62
2023-03-16T15:26:18.479Z,99858.05
2023-03-16T15:28:47.148Z,99860.85
2023-03-16T15:31:18.702Z,99865.02
2023-03-16T15:33:47.201Z,99869.95
2023-03-16T15:36:18.639Z,99873.66
2023-03-16T15:38:49.031Z,99875.09
2023-03-16T15:41:23.679Z,99883.48
2023-03-16T15:44:01.132Z,99890.55
2023-03-16T15:46:30.282Z,99893.89
2023-03-16T15:49:02.698Z,99897.73
2023-03-16T15:51:37.042Z,99903.81
2023-03-16T15:54:09.691Z,99907.73
2023-03-16T15:56:52.831Z,99914.23
2023-03-16T15:59:38.030Z,99924.86
2023-03-16T16:02:39.353Z,99935.23
2023-03-16T16:05:14.730Z,99936.14
2023-03-16T16:07:46.336Z,99934.61
2023-03-16T16:10:16.258Z,99938.63
2023-03-16T16:12:51.557Z,99951.65
2023-03-16T16:15:23.206Z,99942.89
2023-03-16T16:18:19.346Z,99949.58
2023-03-16T16:20:48.494Z,99957.04
2023-03-16T16:23:20.750Z,99958.33
2023-03-16T16:25:51.541Z,99973.64
2023-03-16T16:28:27.293Z,99963.14
2023-03-16T16:30:58.191Z,99964.50
2023-03-16T16:33:31.277Z,99964.90
2023-03-16T16:36:04.216Z,99970.97
2023-03-16T16:38:34.994Z,99968.34
2023-03-16T16:41:09.558Z,99971.80
2023-03-16T16:44:15.914Z,99974.70
2023-03-16T16:46:51.572Z,99977.23
2023-03-16T16:49:22.817Z,99979.04
2023-03-16T16:51:55.687Z,99979.94
2023-03-16T16:54:25.688Z,99989.05
2023-03-16T16:56:55.293Z,99998.95
2023-03-16T16:59:26.479Z,100001.02
2023-03-16T17:01:54.922Z,99998.83
2023-03-16T17:04:27.545Z,100006.33
2023-03-16T17:07:01.808Z,100006.33
2023-03-16T17:09:40.630Z,100003.36
2023-03-16T17:12:17.658Z,100007.67
2023-03-16T17:14:46.396Z,100006.80
2023-03-16T17:17:19.105Z,100010.08
2023-03-16T17:19:52.018Z,100013.90
2023-03-16T17:22:23.180Z,100023.43
2023-03-16T17:24:54.081Z,100023.39
2023-03-16T17:27:33.105Z,100014.52
2023-03-16T17:30:04.429Z,100022.54
2023-03-16T17:32:40.684Z,100022.06
2023-03-16T17:35:15.628Z,100016.64
2023-03-16T17:37:48.060Z,100025.16
2023-03-16T17:40:22.757Z,100022.21
2023-03-16T17:42:53.869Z,100020.12
2023-03-16T17:45:27.961Z,100029.02
2023-03-16T17:47:56.442Z,100029.19
2023-03-16T17:50:29.119Z,100021.16
2023-03-16T17:52:58.204Z,100032.66
2023-03-16T17:55:28.970Z,100029.11
2023-03-16T17:58:00.721Z,100035.03
2023-03-16T18:00:36.301Z,100034.48
2023-03-16T18:03:15.084Z,100045.84
2023-03-16T18:05:47.831Z,100041.05
2023-03-16T18:08:26.850Z,100048.04
2023-03-16T18:11:03.881Z,100042.41
2023-03-16T18:13:38.758Z,100046.98
2023-03-16T18:16:13.668Z,100043.52
2023-03-16T18:18:44.306Z,100048.16
2023-03-16T18:21:26.291Z,100053.06
2023-03-16T18:23:56.533Z,100056.77
2023-03-16T18:26:35.006Z,100057.34
2023-03-16T18:29:05.845Z,100055.20
2023-03-16T18:31:36.208Z,100053.76
2023-03-16T18:34:11.895Z,100060.70
2023-03-16T18:36:49.680Z,100072.89
2023-03-16T18:39:21.437Z,100072.56
2023-03-16T18:41:55.635Z,100078.23
2023-03-16T18:44:27.205Z,100073.41
2023-03-16T18:46:59.298Z,100079.16
2023-03-16T18:49:34.365Z,100077.45
2023-03-16T18:52:04.051Z,100075.27
2023-03-16T18:54:35.613Z,100082.40
2023-03-16T18:57:24.094Z,100080.65
2023-03-16T18:59:55.606Z,100083.07
2023-03-16T19:02:39.166Z,100084.70
2023-03-16T19:05:14.477Z,100092.26
2023-03-16T19:07:44.973Z,100089.90
2023-03-16T19:10:33.901Z,100091.73
2023-03-16T19:14:44.959Z,100088.61
2023-03-16T19:17:24.804Z,100096.55
2023-03-16T19:19:57.844Z,100096.98
2023-03-16T19:22:33.736Z,100110.02
2023-03-16T19:25:06.046Z,100108.73
2023-03-16T19:27:46.331Z,100110.66
2023-03-16T19:30:28.589Z,100107.70
2023-03-16T19:39:46.736Z,100117.69
2023-03-16T19:42:37.556Z,100117.72
2023-03-16T19:45:06.702Z,100127.38
2023-03-16T19:47:38.726Z,100136.10
2023-03-16T19:50:22.513Z,100129.71
2023-03-16T19:52:58.965Z,100133.45
2023-03-16T19:55:32.282Z,100137.89
2023-03-16T19:58:06.530Z,100132.79
2023-03-16T20:00:37.959Z,100138.32
2023-03-16T20:03:09.491Z,100131.11
2023-03-16T20:05:42.511Z,100131.29
2023-03-16T20:08:25.766Z,100126.73
2023-03-16T20:11:44.751Z,100123.98
2023-03-16T20:14:37.566Z,100126.14
2023-03-16T20:17:11.408Z,100134.66
2023-03-16T20:19:50.507Z,100133.02
2023-03-16T20:22:24.329Z,100138.11
2023-03-16T20:24:53.969Z,100137.02
2023-03-16T20:27:32.842Z,100146.52
2023-03-16T20:30:03.412Z,100144.30
2023-03-16T20:32:42.857Z,100141.77
2023-03-16T20:35:26.921Z,100150.02
2023-03-16T20:37:56.487Z,100152.70
2023-03-16T20:40:24.347Z,100152.98
2023-03-16T20:42:56.900Z,100159.27
2023-03-16T20:45:32.931Z,100155.94
2023-03-16T20:48:05.929Z,100160.48
2023-03-16T20:50:40.618Z,100159.88
2023-03-16T20:53:10.709Z,100159.52
2023-03-16T20:55:41.941Z,100158.77
2023-03-16T20:58:24.958Z,100156.09
2023-03-16T21:01:01.586Z,100154.39
2023-03-16T21:03:34.999Z,100165.79
2023-03-16T21:06:15.149Z,100168.33
2023-03-16T21:08:48.644Z,100168.16
2023-03-16T21:11:26.004Z,100160.34
2023-03-16T21:14:04.603Z,100161.19
2023-03-16T21:16:44.172Z,100152.11
2023-03-16T21:19:25.882Z,100168.23
2023-03-16T21:21:55.734Z,100160.84
2023-03-16T21:24:36.706Z,100167.72
2023-03-16T21:27:06.530Z,100164.38
2023-03-16T21:29:40.452Z,100165.77
2023-03-16T21:32:18.639Z,100173.88
2023-03-16T21:34:50.747Z,100164.59
2023-03-16T21:37:30.605Z,100172.82
2023-03-16T21:40:25.911Z,100180.53
2023-03-16T21:42:56.696Z,100172.89
2023-03-16T21:45:32.880Z,100184.60
2023-03-16T21:48:15.177Z,100181.33
2023-03-16T21:50:48.040Z,100188.61
2023-03-16T21:53:33.002Z,100188.09
2023-03-16T21:56:05.706Z,100190.80
2023-03-16T21:58:40.346Z,100186.04
2023-03-16T22:01:32.842Z,100203.77
2023-03-16T22:04:15.436Z,100193.67
2023-03-16T22:07:12.849Z,100184.81
2023-03-16T22:09:47.619Z,100185.94
2023-03-16T22:12:15.446Z,100197.59
2023-03-16T22:14:47.187Z,100193.21
2023-03-16T22:17:40.078Z,100198.01
2023-03-16T22:20:26.634Z,100203.04
2023-03-16T22:23:28.168Z,100201.63
2023-03-16T22:25:58.727Z,100192.05
2023-03-16T22:28:36.680Z,100191.48
2023-03-16T22:31:09.066Z,100205.57
2023-03-16T22:33:40.970Z,100194.97
2023-03-16T22:36:44.947Z,100191.27
2023-03-16T22:39:20.684Z,100186.70
2023-03-16T22:41:58.990Z,100186.77
2023-03-16T22:44:29.455Z,100198.65
2023-03-16T22:47:03.167Z,100200.13
2023-03-16T22:49:34.463Z,100202.04
2023-03-16T22:52:05.642Z,100203.66
2023-03-16T22:54:37.175Z,100200.84
2023-03-16T22:57:06.662Z,100202.36
2023-03-16T22:59:38.704Z,100211.46
2023-03-16T23:02:12.783Z,100209.13
2023-03-16T23:04:41.839Z,100208.83
2023-03-16T23:07:12.979Z,100205.73
2023-03-16T23:09:42.640Z,100205.86
2023-03-16T23:12:19.207Z,100200.23
2023-03-16T23:14:50.860Z,100199.37
2023-03-16T23:17:32.566Z,100204.91
2023-03-16T23:20:29.818Z,100206.27
2023-03-16T23:23:00.423Z,100195.11
2023-03-16T23:25:30.343Z,100201.57
2023-03-16T23:28:02.767Z,100203.73
2023-03-16T23:30:31.293Z,100218.79
2023-03-16T23:33:00.159Z,100216.75
2023-03-16T23:35:30.527Z,100211.77
2023-03-16T23:38:08.040Z,100216.48
2023-03-16T23:40:41.942Z,100213.24
2023-03-16T23:43:10.910Z,100213.52
2023-03-16T23:45:46.042Z,100213.50
2023-03-16T23:48:20.117Z,100219.57
2023-03-16T23:50:48.806Z,100213.30
2023-03-16T23:53:18.209Z,100229.39
2023-03-16T23:55:57.471Z,100219.45
2023-03-16T23:58:27.115Z,100215.86
